createdAt,value
2019-02-11T00:02:21.996Z,5.70
2019-02-11T00:04:53.907Z,5.80
2019-02-11T00:07:24.306Z,5.70
2019-02-11T00:09:54.627Z,5.70
2019-02-11T00:12:24.974Z,5.70
2019-02-11T00:14:55.287Z,5.70
2019-02-11T00:17:25.687Z,5.80
2019-02-11T00:19:56.047Z,5.80
2019-02-11T00:22:26.380Z,5.80
2019-02-11T00:24:56.699Z,5.80
2019-02-11T00:27:27.078Z,5.80
2019-02-11T00:29:57.470Z,5.80
2019-02-11T00:32:27.846Z,5.80
2019-02-11T00:34:59.575Z,5.90
2019-02-11T00:37:29.962Z,5.90
2019-02-11T00:40:00.366Z,5.90
2019-02-11T00:42:30.739Z,5.90
2019-02-11T00:45:01.050Z,5.90
2019-02-11T00:47:31.392Z,5.90
2019-02-11T00:50:01.712Z,5.90
2019-02-11T00:52:32.046Z,6.00
2019-02-11T00:55:02.369Z,5.90
2019-02-11T00:57:32.666Z,6.00
2019-02-11T01:00:03.012Z,6.00
2019-02-11T01:02:33.366Z,6.00
2019-02-11T01:05:04.865Z,6.00
2019-02-11T01:07:35.183Z,6.00
2019-02-11T01:10:07.346Z,6.00
2019-02-11T01:12:37.715Z,6.00
2019-02-11T01:15:09.174Z,6.10
2019-02-11T01:17:39.855Z,6.10
2019-02-11T01:20:12.228Z,6.10
2019-02-11T01:22:43.502Z,6.10
2019-02-11T01:25:13.855Z,6.20
2019-02-11T01:27:44.187Z,6.20
2019-02-11T01:30:14.572Z,6.20
2019-02-11T01:32:44.867Z,6.10
2019-02-11T01:35:16.152Z,6.10
2019-02-11T01:37:46.459Z,6.10
2019-02-11T01:40:16.773Z,6.10
2019-02-11T01:42:47.379Z,6.10
2019-02-11T01:45:17.173Z,6.10
2019-02-11T01:47:47.511Z,6.10
2019-02-11T01:50:17.858Z,6.10
2019-02-11T01:52:48.209Z,6.00
2019-02-11T01:55:18.504Z,6.00
2019-02-11T01:57:48.850Z,6.00
2019-02-11T02:00:19.271Z,6.00
2019-02-11T02:02:49.625Z,5.90
2019-02-11T02:05:20.439Z,5.90
2019-02-11T02:07:50.767Z,5.90
2019-02-11T02:10:21.119Z,5.80
2019-02-11T02:12:51.458Z,5.80
2019-02-11T02:15:21.768Z,5.70
2019-02-11T02:17:52.104Z,5.70
2019-02-11T02:20:22.451Z,5.60
2019-02-11T02:22:52.759Z,5.60
2019-02-11T02:25:23.120Z,5.50
2019-02-11T02:27:53.459Z,5.50
2019-02-11T02:30:23.787Z,5.40
2019-02-11T02:32:54.126Z,5.30
2019-02-11T02:35:25.314Z,5.30
2019-02-11T02:37:55.714Z,5.30
2019-02-11T02:40:26.079Z,5.30
2019-02-11T02:42:57.555Z,5.30
2019-02-11T02:45:28.043Z,5.20
2019-02-11T02:47:58.434Z,5.20
2019-02-11T02:50:28.771Z,5.20
2019-02-11T02:52:59.117Z,5.20
2019-02-11T02:55:29.491Z,5.10
2019-02-11T02:57:59.861Z,5.10
2019-02-11T03:00:30.207Z,5.10
2019-02-11T03:03:00.522Z,5.10
2019-02-11T03:05:32.005Z,5.10
2019-02-11T03:08:02.358Z,5.10
2019-02-11T03:10:33.275Z,5.10
2019-02-11T03:13:03.630Z,5.10
2019-02-11T03:15:33.939Z,5.10
2019-02-11T03:18:04.372Z,5.20
2019-02-11T03:20:35.034Z,5.10
2019-02-11T03:23:05.363Z,5.10
2019-02-11T03:25:35.688Z,5.10
2019-02-11T03:28:06.107Z,5.10
2019-02-11T03:30:36.958Z,5.10
2019-02-11T03:33:07.061Z,5.10
2019-02-11T03:35:38.093Z,5.10
2019-02-11T03:38:08.472Z,5.10
2019-02-11T03:40:38.783Z,5.10
2019-02-11T03:43:09.186Z,5.10
2019-02-11T03:45:39.515Z,5.10
2019-02-11T03:48:09.855Z,5.10
2019-02-11T03:50:40.171Z,5.20
2019-02-11T03:53:10.562Z,5.20
2019-02-11T03:55:41.579Z,5.20
2019-02-11T03:58:11.965Z,5.20
2019-02-11T04:00:42.300Z,5.20
2019-02-11T04:03:12.626Z,5.30
2019-02-11T04:05:44.358Z,5.30
2019-02-11T04:08:15.749Z,5.30
2019-02-11T04:10:46.075Z,5.30
2019-02-11T04:13:20.051Z,5.40
2019-02-11T04:15:50.397Z,5.40
2019-02-11T04:18:20.739Z,5.40
2019-02-11T04:20:51.458Z,5.40
2019-02-11T04:23:21.817Z,5.50
2019-02-11T04:25:52.146Z,5.50
2019-02-11T04:28:22.757Z,5.50
2019-02-11T04:30:53.131Z,5.50
2019-02-11T04:33:23.498Z,5.60
2019-02-11T04:35:53.840Z,5.60
2019-02-11T04:38:24.207Z,5.60
2019-02-11T04:40:54.551Z,5.60
2019-02-11T04:43:24.926Z,5.70
2019-02-11T04:45:55.260Z,5.70
2019-02-11T04:48:25.611Z,5.70
2019-02-11T04:50:55.962Z,5.70
2019-02-11T04:53:26.341Z,5.70
2019-02-11T04:55:56.650Z,5.80
2019-02-11T04:58:26.984Z,5.80
2019-02-11T05:00:57.331Z,5.80
2019-02-11T05:03:27.670Z,5.80
2019-02-11T05:05:58.018Z,5.80
2019-02-11T05:08:28.397Z,5.80
2019-02-11T05:10:58.760Z,5.80
2019-02-11T05:13:29.137Z,5.80
2019-02-11T05:15:59.468Z,5.90
2019-02-11T05:18:29.834Z,5.90
2019-02-11T05:21:00.139Z,5.90
2019-02-11T05:23:30.482Z,5.80
2019-02-11T05:26:00.828Z,5.90
2019-02-11T05:28:31.171Z,5.90
2019-02-11T05:31:07.318Z,5.90
2019-02-11T05:33:37.705Z,6.00
2019-02-11T05:36:08.272Z,6.00
2019-02-11T05:38:38.689Z,6.00
2019-02-11T05:41:09.194Z,6.10
2019-02-11T05:43:39.667Z,6.10
2019-02-11T05:46:10.055Z,6.10
2019-02-11T05:48:40.414Z,6.10
2019-02-11T05:51:10.789Z,6.20
2019-02-11T05:53:41.223Z,6.20
2019-02-11T05:56:11.606Z,6.20
2019-02-11T05:58:41.933Z,6.30
2019-02-11T06:01:12.272Z,6.30
2019-02-11T06:03:42.598Z,6.40
2019-02-11T06:06:13.512Z,6.40
2019-02-11T06:08:44.000Z,6.40
2019-02-11T06:11:14.286Z,6.40
2019-02-11T06:13:44.656Z,6.50
2019-02-11T06:16:15.002Z,6.50
2019-02-11T06:18:45.308Z,6.50
2019-02-11T06:21:15.680Z,6.50
2019-02-11T06:23:46.031Z,6.60
2019-02-11T06:26:16.403Z,6.60
2019-02-11T06:28:46.836Z,6.60
2019-02-11T06:31:17.216Z,6.60
2019-02-11T06:33:47.586Z,6.50
2019-02-11T06:36:18.426Z,6.60
2019-02-11T06:38:48.767Z,6.60
2019-02-11T06:41:19.115Z,6.70
2019-02-11T06:43:49.483Z,6.70
2019-02-11T06:46:20.545Z,6.70
2019-02-11T06:48:50.909Z,6.70
2019-02-11T06:51:21.635Z,6.80
2019-02-11T06:53:52.078Z,6.80
2019-02-11T06:56:22.960Z,6.80
2019-02-11T06:58:53.444Z,6.80
2019-02-11T07:01:23.812Z,6.80
2019-02-11T07:03:54.170Z,6.90
2019-02-11T07:06:25.872Z,6.90
2019-02-11T07:08:56.370Z,6.90
2019-02-11T07:11:26.695Z,6.90
2019-02-11T07:13:57.339Z,6.90
2019-02-11T07:16:29.522Z,6.90
2019-02-11T07:19:00.160Z,6.90
2019-02-11T07:21:31.132Z,7.00
2019-02-11T07:24:01.494Z,7.00
2019-02-11T07:26:31.824Z,7.10
2019-02-11T07:29:02.197Z,7.10
2019-02-11T07:31:32.504Z,7.20
2019-02-11T07:34:02.861Z,7.20
2019-02-11T07:36:37.230Z,7.20
2019-02-11T07:39:09.921Z,7.40
2019-02-11T07:41:47.544Z,7.40
2019-02-11T07:44:26.712Z,7.50
2019-02-11T07:46:59.588Z,7.50
2019-02-11T07:49:29.983Z,7.60
2019-02-11T07:52:00.305Z,7.70
2019-02-11T07:54:30.670Z,7.70
2019-02-11T07:57:01.036Z,7.80
2019-02-11T07:59:31.522Z,7.80
2019-02-11T08:02:10.325Z,7.80
2019-02-11T08:04:40.774Z,7.80
2019-02-11T08:07:12.311Z,7.90
2019-02-11T08:09:42.642Z,7.90
2019-02-11T08:12:13.016Z,7.90
2019-02-11T08:14:43.394Z,7.90
2019-02-11T08:17:13.850Z,7.90
2019-02-11T08:19:44.748Z,7.90
2019-02-11T08:22:15.135Z,7.90
2019-02-11T08:24:45.516Z,7.90
2019-02-11T08:27:15.896Z,8.00
2019-02-11T08:29:46.311Z,8.10
2019-02-11T08:32:16.793Z,8.10
2019-02-11T08:34:47.188Z,8.10
2019-02-11T08:37:18.866Z,8.10
2019-02-11T08:39:49.254Z,8.20
2019-02-11T08:42:19.566Z,8.20
2019-02-11T08:44:49.948Z,8.20
2019-02-11T08:47:20.244Z,8.20
2019-02-11T08:49:50.662Z,8.10
2019-02-11T08:52:20.991Z,8.20
2019-02-11T08:54:51.372Z,8.20
2019-02-11T08:57:21.834Z,8.20
2019-02-11T08:59:52.220Z,8.20
2019-02-11T09:02:22.671Z,8.20
2019-02-11T09:04:53.022Z,8.30
2019-02-11T09:07:24.313Z,8.30
2019-02-11T09:09:54.899Z,8.40
2019-02-11T09:12:25.238Z,8.40
2019-02-11T09:14:55.644Z,8.50
2019-02-11T09:17:25.990Z,8.40
2019-02-11T09:19:56.343Z,8.50
2019-02-11T09:22:26.678Z,8.60
2019-02-11T09:24:57.964Z,8.60
2019-02-11T09:27:28.343Z,8.50
2019-02-11T09:29:58.724Z,8.50
2019-02-11T09:32:29.060Z,8.40
2019-02-11T09:34:59.387Z,8.40
2019-02-11T09:37:29.711Z,8.50
2019-02-11T09:40:00.726Z,8.40
2019-02-11T09:42:31.164Z,8.40
2019-02-11T09:45:01.511Z,8.50
2019-02-11T09:47:32.918Z,8.60
2019-02-11T09:50:17.738Z,8.70
2019-02-11T09:52:48.099Z,8.80
2019-02-11T09:55:24.321Z,8.80
2019-02-11T09:57:54.651Z,8.90
2019-02-11T10:00:25.309Z,8.90
2019-02-11T10:02:55.626Z,8.90
2019-02-11T10:05:26.034Z,8.90
2019-02-11T10:07:56.434Z,8.90
2019-02-11T10:10:28.419Z,8.90
2019-02-11T10:12:58.846Z,8.90
2019-02-11T10:15:29.560Z,8.90
2019-02-11T10:18:00.333Z,8.90
2019-02-11T10:20:30.661Z,9.00
2019-02-11T10:23:01.056Z,9.00
2019-02-11T10:25:31.468Z,9.10
2019-02-11T10:28:04.580Z,9.30
2019-02-11T10:30:35.487Z,9.60
2019-02-11T10:33:06.080Z,10.10
2019-02-11T10:35:42.136Z,10.50
2019-02-11T10:38:08.516Z,11.00
2019-02-11T10:40:38.892Z,11.70
2019-02-11T10:43:09.260Z,12.50
2019-02-11T10:45:39.622Z,12.90
2019-02-11T10:48:10.002Z,13.00
2019-02-11T10:50:40.356Z,12.90
2019-02-11T10:53:10.674Z,12.70
2019-02-11T10:55:41.278Z,12.50
2019-02-11T10:58:11.586Z,12.10
2019-02-11T11:00:41.950Z,11.80
2019-02-11T11:03:12.243Z,11.50
2019-02-11T11:05:42.602Z,11.30
2019-02-11T11:08:12.988Z,11.10
2019-02-11T11:10:44.174Z,11.10
2019-02-11T11:13:14.518Z,10.90
2019-02-11T11:15:44.925Z,10.80
2019-02-11T11:18:15.234Z,10.60
2019-02-11T11:20:45.612Z,10.50
2019-02-11T11:23:15.930Z,10.40
2019-02-11T11:25:48.004Z,10.20
2019-02-11T11:28:18.291Z,10.20
2019-02-11T11:30:48.908Z,10.10
2019-02-11T11:33:19.272Z,10.10
2019-02-11T11:35:49.638Z,10.20
2019-02-11T11:38:19.980Z,10.30
2019-02-11T11:40:51.493Z,10.40
2019-02-11T11:43:21.816Z,10.60
2019-02-11T11:45:52.164Z,10.50
2019-02-11T11:48:22.805Z,10.50
2019-02-11T11:50:53.213Z,10.50
2019-02-11T11:53:23.543Z,10.50
2019-02-11T11:55:53.942Z,10.20
2019-02-11T11:58:27.032Z,10.20
2019-02-11T12:00:56.296Z,10.10
2019-02-11T12:03:26.911Z,10.10
2019-02-11T12:05:57.319Z,10.00
2019-02-11T12:08:27.672Z,9.90
2019-02-11T12:10:59.274Z,9.80
2019-02-11T12:13:29.608Z,9.70
2019-02-11T12:15:59.973Z,9.60
2019-02-11T12:18:30.303Z,9.60
2019-02-11T12:21:00.636Z,9.70
2019-02-11T12:23:31.055Z,9.70
2019-02-11T12:26:01.328Z,9.70
2019-02-11T12:28:32.066Z,9.80
2019-02-11T12:31:02.442Z,9.80
2019-02-11T12:33:32.749Z,9.60
2019-02-11T12:36:03.066Z,9.50
2019-02-11T12:38:33.406Z,9.50
2019-02-11T12:41:04.861Z,9.40
2019-02-11T12:43:35.197Z,9.30
2019-02-11T12:46:05.562Z,9.20
2019-02-11T12:48:35.952Z,9.00
2019-02-11T12:51:06.253Z,9.00
2019-02-11T12:53:36.644Z,8.90
2019-02-11T12:56:07.029Z,8.80
2019-02-11T12:58:37.373Z,8.70
2019-02-11T13:01:07.816Z,8.60
2019-02-11T13:03:38.190Z,8.60
2019-02-11T13:06:08.534Z,8.40
2019-02-11T13:08:39.060Z,8.30
2019-02-11T13:11:09.857Z,8.10
2019-02-11T13:13:40.249Z,8.00
2019-02-11T13:16:10.647Z,7.80
2019-02-11T13:18:41.066Z,7.70
2019-02-11T13:21:11.767Z,7.50
2019-02-11T13:23:42.251Z,7.40
2019-02-11T13:26:12.589Z,7.30
2019-02-11T13:28:43.155Z,7.20
2019-02-11T13:31:13.514Z,7.10
2019-02-11T13:33:43.858Z,7.00
2019-02-11T13:36:15.483Z,7.00
2019-02-11T13:38:45.863Z,6.80
2019-02-11T13:41:36.649Z,6.70
2019-02-11T13:44:11.478Z,6.70
2019-02-11T13:46:39.061Z,6.60
2019-02-11T13:49:11.218Z,6.60
2019-02-11T13:51:43.483Z,6.60
2019-02-11T13:54:13.828Z,6.60
2019-02-11T13:56:44.167Z,6.50
2019-02-11T13:59:14.464Z,6.40
2019-02-11T14:01:44.831Z,6.40
2019-02-11T14:04:15.175Z,6.50
2019-02-11T14:06:45.502Z,6.50
2019-02-11T14:09:15.894Z,6.40
2019-02-11T14:11:47.037Z,6.30
2019-02-11T14:14:18.998Z,6.30
2019-02-11T14:16:49.324Z,6.20
2019-02-11T14:19:21.376Z,6.30
2019-02-11T14:21:51.676Z,6.30
2019-02-11T14:24:23.097Z,6.30
2019-02-11T14:26:53.445Z,6.30
2019-02-11T14:29:23.772Z,6.20
2019-02-11T14:31:55.281Z,6.20
2019-02-11T14:34:25.849Z,6.10
2019-02-11T14:36:57.653Z,6.10
2019-02-11T14:39:28.151Z,6.10
2019-02-11T14:41:58.693Z,6.10
2019-02-11T14:44:29.071Z,6.10
2019-02-11T14:46:59.578Z,6.00
2019-02-11T14:49:29.961Z,6.00
2019-02-11T14:52:00.362Z,6.00
2019-02-11T14:54:31.002Z,6.00
2019-02-11T14:57:01.438Z,6.00
2019-02-11T14:59:31.747Z,6.00
2019-02-11T15:02:02.231Z,5.90
2019-02-11T15:04:33.552Z,5.90
2019-02-11T15:07:03.904Z,6.00
2019-02-11T15:09:34.569Z,6.00
2019-02-11T15:12:05.490Z,6.10
2019-02-11T15:14:35.870Z,6.10
2019-02-11T15:17:06.245Z,6.00
2019-02-11T15:19:36.636Z,6.00
2019-02-11T15:22:07.048Z,6.00
2019-02-11T15:24:37.353Z,6.00
2019-02-11T15:27:07.690Z,6.00
2019-02-11T15:29:38.031Z,6.00
2019-02-11T15:32:08.374Z,6.00
2019-02-11T15:34:39.095Z,6.00
2019-02-11T15:37:09.485Z,6.00
2019-02-11T15:39:39.859Z,6.00
2019-02-11T15:42:11.554Z,6.00
2019-02-11T15:44:41.981Z,5.90
2019-02-11T15:47:12.365Z,5.90
2019-02-11T15:49:42.921Z,5.90
2019-02-11T15:52:13.347Z,5.90
2019-02-11T15:54:43.741Z,5.90
2019-02-11T15:57:14.167Z,5.90
2019-02-11T15:59:44.653Z,5.90
2019-02-11T16:02:15.016Z,5.80
2019-02-11T16:04:46.535Z,5.90
2019-02-11T16:07:17.177Z,5.80
2019-02-11T16:09:47.701Z,5.80
2019-02-11T16:12:19.346Z,5.80
2019-02-11T16:14:50.365Z,5.80
2019-02-11T16:17:20.653Z,5.80
2019-02-11T16:19:51.015Z,5.80
2019-02-11T16:22:21.373Z,5.70
2019-02-11T16:24:52.918Z,5.70
2019-02-11T16:27:23.287Z,5.70
2019-02-11T16:29:53.621Z,5.70
2019-02-11T16:32:24.008Z,5.70
2019-02-11T16:34:54.473Z,5.70
2019-02-11T16:37:24.823Z,5.70
2019-02-11T16:39:55.121Z,5.70
2019-02-11T16:42:25.481Z,5.60
2019-02-11T16:44:57.231Z,5.60
2019-02-11T16:47:27.625Z,5.70
2019-02-11T16:49:57.982Z,5.60
2019-02-11T16:52:28.329Z,5.70
2019-02-11T16:54:59.728Z,5.70
2019-02-11T16:57:30.443Z,5.70
2019-02-11T17:00:00.796Z,5.70
2019-02-11T17:02:31.171Z,5.70
2019-02-11T17:05:01.519Z,5.60
2019-02-11T17:07:31.925Z,5.60
2019-02-11T17:10:03.969Z,5.70
2019-02-11T17:12:34.365Z,5.70
2019-02-11T17:15:06.012Z,5.70
2019-02-11T17:17:37.553Z,5.70
2019-02-11T17:20:09.164Z,5.80
2019-02-11T17:22:39.501Z,5.80
2019-02-11T17:25:11.353Z,5.80
2019-02-11T17:27:41.653Z,5.70
2019-02-11T17:30:14.526Z,5.70
2019-02-11T17:32:44.855Z,5.70
2019-02-11T17:35:15.194Z,5.60
2019-02-11T17:37:45.535Z,5.60
2019-02-11T17:40:16.201Z,5.60
2019-02-11T17:42:46.674Z,5.60
2019-02-11T17:45:21.021Z,5.60
2019-02-11T17:47:51.717Z,5.60
2019-02-11T17:50:22.251Z,5.60
2019-02-11T17:52:53.482Z,5.60
2019-02-11T17:55:23.835Z,5.60
2019-02-11T17:57:54.194Z,5.60
2019-02-11T18:00:31.954Z,5.60
2019-02-11T18:03:02.835Z,5.70
2019-02-11T18:05:33.201Z,5.70
2019-02-11T18:08:11.792Z,5.70
2019-02-11T18:10:42.178Z,5.70
2019-02-11T18:13:12.581Z,5.70
2019-02-11T18:15:43.958Z,5.70
2019-02-11T18:18:14.315Z,5.70
2019-02-11T18:21:11.668Z,5.70
2019-02-11T18:23:42.005Z,5.60
2019-02-11T18:26:12.353Z,5.60
2019-02-11T18:28:42.767Z,5.60
2019-02-11T18:31:14.710Z,5.70
2019-02-11T18:33:45.066Z,5.70
2019-02-11T18:36:15.430Z,5.70
2019-02-11T18:38:45.717Z,5.60
2019-02-11T18:41:16.075Z,5.70
2019-02-11T18:43:47.921Z,5.70
2019-02-11T18:46:18.381Z,5.70
2019-02-11T18:48:48.699Z,5.60
2019-02-11T18:51:19.157Z,5.70
2019-02-11T18:53:49.497Z,5.80
2019-02-11T18:56:21.933Z,5.70
2019-02-11T18:59:09.561Z,5.60
2019-02-11T19:01:44.551Z,5.60
2019-02-11T19:04:15.720Z,5.60
2019-02-11T19:06:50.599Z,5.60
2019-02-11T19:09:21.408Z,5.60
2019-02-11T19:11:52.708Z,5.70
2019-02-11T19:14:23.090Z,5.70
2019-02-11T19:16:53.554Z,5.70
2019-02-11T19:19:23.936Z,5.70
2019-02-11T19:21:54.294Z,5.70
2019-02-11T19:24:24.622Z,5.70
2019-02-11T19:26:55.030Z,5.70
2019-02-11T19:29:25.350Z,5.70
2019-02-11T19:31:55.718Z,5.70
2019-02-11T19:34:26.069Z,5.70
2019-02-11T19:36:56.436Z,5.70
2019-02-11T19:39:26.764Z,5.70
2019-02-11T19:41:57.147Z,5.70
2019-02-11T19:44:27.448Z,5.70
2019-02-11T19:46:57.855Z,5.60
2019-02-11T19:49:28.189Z,5.70
2019-02-11T19:51:58.516Z,5.70
2019-02-11T19:54:28.823Z,5.60
2019-02-11T19:56:59.159Z,5.70
2019-02-11T19:59:29.590Z,5.70
2019-02-11T20:02:00.322Z,5.60
2019-02-11T20:04:31.600Z,5.70
2019-02-11T20:07:02.084Z,5.60
2019-02-11T20:09:33.062Z,5.60
2019-02-11T20:12:03.704Z,5.60
2019-02-11T20:14:34.090Z,5.60
2019-02-11T20:17:04.473Z,5.60
2019-02-11T20:19:34.842Z,5.60
2019-02-11T20:22:05.155Z,5.50
2019-02-11T20:24:35.482Z,5.50
2019-02-11T20:27:05.817Z,5.40
2019-02-11T20:29:36.213Z,5.40
2019-02-11T20:32:06.530Z,5.40
2019-02-11T20:34:36.862Z,5.30
2019-02-11T20:37:07.240Z,5.40
2019-02-11T20:39:37.600Z,5.30
2019-02-11T20:42:07.916Z,5.30
2019-02-11T20:44:38.287Z,5.20
2019-02-11T20:47:08.588Z,5.20
2019-02-11T20:49:38.933Z,5.20
2019-02-11T20:52:09.236Z,5.20
2019-02-11T20:54:39.581Z,5.20
2019-02-11T20:57:09.971Z,5.20
2019-02-11T20:59:40.278Z,5.10
2019-02-11T21:02:10.690Z,5.10
2019-02-11T21:04:41.030Z,5.10
2019-02-11T21:07:12.527Z,5.00
2019-02-11T21:09:42.888Z,5.00
2019-02-11T21:12:13.330Z,5.10
2019-02-11T21:14:43.706Z,5.10
2019-02-11T21:17:14.093Z,5.10
2019-02-11T21:19:44.402Z,5.00
2019-02-11T21:22:14.797Z,4.90
2019-02-11T21:24:45.126Z,4.90
2019-02-11T21:27:16.398Z,4.80
2019-02-11T21:29:46.941Z,4.80
2019-02-11T21:32:17.382Z,4.80
2019-02-11T21:34:47.760Z,4.70
2019-02-11T21:37:18.092Z,4.70
2019-02-11T21:39:48.454Z,4.70
2019-02-11T21:42:19.098Z,4.70
2019-02-11T21:44:49.439Z,4.60
2019-02-11T21:47:19.818Z,4.50
2019-02-11T21:49:50.174Z,4.50
2019-02-11T21:52:20.462Z,4.50
2019-02-11T21:54:50.890Z,4.60
2019-02-11T21:57:21.726Z,4.50
2019-02-11T21:59:52.200Z,4.50
2019-02-11T22:02:22.514Z,4.50
2019-02-11T22:04:53.184Z,4.50
2019-02-11T22:07:23.518Z,4.60
2019-02-11T22:09:54.973Z,4.50
2019-02-11T22:12:25.886Z,4.50
2019-02-11T22:14:56.588Z,4.50
2019-02-11T22:17:27.606Z,4.50
2019-02-11T22:19:57.942Z,4.60
2019-02-11T22:22:28.274Z,4.60
2019-02-11T22:24:58.603Z,4.50
2019-02-11T22:27:28.976Z,4.50
2019-02-11T22:29:59.285Z,4.60
2019-02-11T22:32:37.032Z,4.50
2019-02-11T22:35:08.020Z,4.60
2019-02-11T22:37:40.102Z,4.60
2019-02-11T22:40:11.226Z,4.50
2019-02-11T22:42:41.592Z,4.50
2019-02-11T22:45:14.538Z,4.50
2019-02-11T22:47:44.862Z,4.50
2019-02-11T22:50:15.216Z,4.50
2019-02-11T22:52:45.541Z,4.50
2019-02-11T22:55:17.085Z,4.50
2019-02-11T22:57:47.400Z,4.50
2019-02-11T23:00:42.301Z,4.60
2019-02-11T23:03:12.816Z,4.60
2019-02-11T23:05:43.541Z,4.50
2019-02-11T23:08:14.033Z,4.50
2019-02-11T23:10:44.455Z,4.50
2019-02-11T23:13:14.804Z,4.50
2019-02-11T23:15:45.150Z,4.50
2019-02-11T23:18:15.962Z,4.60
2019-02-11T23:20:51.749Z,4.60
2019-02-11T23:23:18.266Z,4.60
2019-02-11T23:25:48.636Z,4.50
2019-02-11T23:28:20.084Z,4.50
2019-02-11T23:30:50.512Z,4.60
2019-02-11T23:33:21.678Z,4.60
2019-02-11T23:35:52.064Z,4.60
2019-02-11T23:38:22.468Z,4.50
2019-02-11T23:40:52.848Z,4.50
2019-02-11T23:43:23.242Z,4.60
2019-02-11T23:45:53.568Z,4.50
2019-02-11T23:48:24.310Z,4.50
2019-02-11T23:51:00.303Z,4.40
2019-02-11T23:53:26.631Z,4.50
2019-02-11T23:55:56.936Z,4.50
2019-02-11T23:58:27.596Z,4.50
